sensor_id;sensor_type;location;lat;lon;timestamp;pressure;altitude;pressure_sealevel;temperature;humidity
30682;BME280;17439;48.092;11.842;2023-04-10T00:00:27;96088.28;;;4.98;57.37
30682;BME280;17439;48.092;11.842;2023-04-10T00:02:54;96089.59;;;4.96;57.44
30682;BME280;17439;48.092;11.842;2023-04-10T00:05:21;96091.75;;;4.94;57.14
30682;BME280;17439;48.092;11.842;2023-04-10T00:07:48;96084.22;;;4.90;57.45
30682;BME280;17439;48.092;11.842;2023-04-10T00:10:14;96090.91;;;4.88;57.57
30682;BME280;17439;48.092;11.842;2023-04-10T00:12:41;96087.66;;;4.86;57.54
30682;BME280;17439;48.092;11.842;2023-04-10T00:15:08;96095.19;;;4.84;57.51
30682;BME280;17439;48.092;11.842;2023-04-10T00:17:35;96091.13;;;4.81;57.43
30682;BME280;17439;48.092;11.842;2023-04-10T00:20:02;96093.28;;;4.79;57.66
30682;BME280;17439;48.092;11.842;2023-04-10T00:22:28;96092.16;;;4.75;57.68
30682;BME280;17439;48.092;11.842;2023-04-10T00:24:55;96098.03;;;4.72;57.66
30682;BME280;17439;48.092;11.842;2023-04-10T00:27:22;96087.81;;;4.69;57.76
30682;BME280;17439;48.092;11.842;2023-04-10T00:29:48;96094.53;;;4.66;57.54
30682;BME280;17439;48.092;11.842;2023-04-10T00:32:15;96086.97;;;4.63;57.53
30682;BME280;17439;48.092;11.842;2023-04-10T00:34:42;96081.28;;;4.60;57.31
30682;BME280;17439;48.092;11.842;2023-04-10T00:37:09;96076.72;;;4.55;57.64
30682;BME280;17439;48.092;11.842;2023-04-10T00:39:35;96069.97;;;4.52;57.72
30682;BME280;17439;48.092;11.842;2023-04-10T00:42:02;96070.75;;;4.48;57.66
30682;BME280;17439;48.092;11.842;2023-04-10T00:44:28;96090.03;;;4.45;57.65
30682;BME280;17439;48.092;11.842;2023-04-10T00:46:55;96086.28;;;4.41;57.60
30682;BME280;17439;48.092;11.842;2023-04-10T00:49:22;96084.34;;;4.36;57.75
30682;BME280;17439;48.092;11.842;2023-04-10T00:51:49;96075.72;;;4.34;57.59
30682;BME280;17439;48.092;11.842;2023-04-10T00:54:19;96070.06;;;4.30;57.67
30682;BME280;17439;48.092;11.842;2023-04-10T00:56:46;96073.25;;;4.27;57.90
30682;BME280;17439;48.092;11.842;2023-04-10T00:59:13;96070.28;;;4.24;57.77
30682;BME280;17439;48.092;11.842;2023-04-10T01:01:41;96062.47;;;4.22;57.66
30682;BME280;17439;48.092;11.842;2023-04-10T01:04:08;96069.38;;;4.13;60.23
30682;BME280;17439;48.092;11.842;2023-04-10T01:06:57;96077.41;;;4.13;60.47
30682;BME280;17439;48.092;11.842;2023-04-10T01:09:40;96077.66;;;4.11;59.56
30682;BME280;17439;48.092;11.842;2023-04-10T01:12:24;96080.63;;;4.10;59.63
30682;BME280;17439;48.092;11.842;2023-04-10T01:15:06;96076.59;;;4.07;60.08
30682;BME280;17439;48.092;11.842;2023-04-10T01:17:49;96073.06;;;4.07;59.88
30682;BME280;17439;48.092;11.842;2023-04-10T01:20:24;96074.16;;;4.06;58.27
30682;BME280;17439;48.092;11.842;2023-04-10T01:23:24;96065.53;;;4.04;59.84
30682;BME280;17439;48.092;11.842;2023-04-10T01:26:02;96069.28;;;4.03;59.94
30682;BME280;17439;48.092;11.842;2023-04-10T01:34:31;96065.19;;;3.95;60.03
30682;BME280;17439;48.092;11.842;2023-04-10T01:37:00;96072.41;;;3.94;58.49
30682;BME280;17439;48.092;11.842;2023-04-10T01:39:29;96067.28;;;3.93;58.65
30682;BME280;17439;48.092;11.842;2023-04-10T01:41:59;96061.13;;;3.92;58.45
30682;BME280;17439;48.092;11.842;2023-04-10T01:44:40;96058.94;;;3.89;59.20
30682;BME280;17439;48.092;11.842;2023-04-10T01:47:07;96064.31;;;3.89;58.56
30682;BME280;17439;48.092;11.842;2023-04-10T01:49:37;96059.44;;;3.86;59.12
30682;BME280;17439;48.092;11.842;2023-04-10T01:52:05;96063.22;;;3.85;58.69
30682;BME280;17439;48.092;11.842;2023-04-10T01:54:34;96057.53;;;3.81;59.16
30682;BME280;17439;48.092;11.842;2023-04-10T01:57:02;96052.41;;;3.80;58.86
30682;BME280;17439;48.092;11.842;2023-04-10T01:59:37;96045.44;;;3.79;58.60
30682;BME280;17439;48.092;11.842;2023-04-10T02:02:04;96048.63;;;3.76;58.64
30682;BME280;17439;48.092;11.842;2023-04-10T02:04:31;96048.88;;;3.74;59.00
30682;BME280;17439;48.092;11.842;2023-04-10T02:07:12;96049.94;;;3.73;58.98
30682;BME280;17439;48.092;11.842;2023-04-10T02:12:38;96042.91;;;3.67;60.50
30682;BME280;17439;48.092;11.842;2023-04-10T02:15:05;96035.09;;;3.66;59.10
30682;BME280;17439;48.092;11.842;2023-04-10T02:17:33;96046.06;;;3.64;59.29
30682;BME280;17439;48.092;11.842;2023-04-10T02:20:01;96039.91;;;3.63;59.09
30682;BME280;17439;48.092;11.842;2023-04-10T02:22:28;96037.72;;;3.60;59.16
30682;BME280;17439;48.092;11.842;2023-04-10T02:24:57;96040.66;;;3.59;59.63
30682;BME280;17439;48.092;11.842;2023-04-10T02:27:34;96029.13;;;3.58;61.36
30682;BME280;17439;48.092;11.842;2023-04-10T02:30:02;96034.50;;;3.58;59.86
30682;BME280;17439;48.092;11.842;2023-04-10T02:32:31;96031.81;;;3.58;60.36
30682;BME280;17439;48.092;11.842;2023-04-10T02:34:58;96037.19;;;3.58;60.26
30682;BME280;17439;48.092;11.842;2023-04-10T02:37:25;96041.47;;;3.59;60.44
30682;BME280;17439;48.092;11.842;2023-04-10T02:39:52;96041.22;;;3.61;60.27
30682;BME280;17439;48.092;11.842;2023-04-10T02:42:21;96037.47;;;3.62;60.47
30682;BME280;17439;48.092;11.842;2023-04-10T02:44:50;96039.91;;;3.63;60.24
30682;BME280;17439;48.092;11.842;2023-04-10T02:47:17;96048.50;;;3.66;60.41
30682;BME280;17439;48.092;11.842;2023-04-10T02:49:45;96041.22;;;3.61;62.24
30682;BME280;17439;48.092;11.842;2023-04-10T02:52:14;96042.91;;;3.67;60.20
30682;BME280;17439;48.092;11.842;2023-04-10T02:54:40;96049.63;;;3.70;59.98
30682;BME280;17439;48.092;11.842;2023-04-10T02:57:07;96046.97;;;3.70;60.57
30682;BME280;17439;48.092;11.842;2023-04-10T02:59:34;96045.06;;;3.70;60.39
30682;BME280;17439;48.092;11.842;2023-04-10T03:02:03;96046.44;;;3.73;60.16
30682;BME280;17439;48.092;11.842;2023-04-10T03:04:33;96045.66;;;3.72;60.44
30682;BME280;17439;48.092;11.842;2023-04-10T03:07:00;96043.22;;;3.71;60.47
30682;BME280;17439;48.092;11.842;2023-04-10T03:09:27;96040.53;;;3.71;60.99
30682;BME280;17439;48.092;11.842;2023-04-10T03:11:53;96041.88;;;3.73;60.60
30682;BME280;17439;48.092;11.842;2023-04-10T03:14:20;96041.09;;;3.73;60.87
30682;BME280;17439;48.092;11.842;2023-04-10T03:16:47;96038.66;;;3.71;60.71
30682;BME280;17439;48.092;11.842;2023-04-10T03:19:13;96044.03;;;3.71;60.81
30682;BME280;17439;48.092;11.842;2023-04-10T03:21:40;96041.59;;;3.70;61.10
30682;BME280;17439;48.092;11.842;2023-04-10T03:24:07;96039.72;;;3.70;60.90
30682;BME280;17439;48.092;11.842;2023-04-10T03:26:33;96039.72;;;3.70;60.90
30682;BME280;17439;48.092;11.842;2023-04-10T03:29:00;96040.53;;;3.71;60.96
30682;BME280;17439;48.092;11.842;2023-04-10T03:31:28;96043.22;;;3.71;60.78
30682;BME280;17439;48.092;11.842;2023-04-10T03:33:57;96044.28;;;3.70;60.85
30682;BME280;17439;48.092;11.842;2023-04-10T03:36:24;96045.06;;;3.70;60.77
30682;BME280;17439;48.092;11.842;2023-04-10T03:38:52;96046.06;;;3.64;62.74
30682;BME280;17439;48.092;11.842;2023-04-10T03:41:18;96042.63;;;3.69;60.55
30682;BME280;17439;48.092;11.842;2023-04-10T03:43:45;96041.84;;;3.68;60.38
30682;BME280;17439;48.092;11.842;2023-04-10T03:46:12;96042.09;;;3.67;60.53
30682;BME280;17439;48.092;11.842;2023-04-10T03:48:42;96039.41;;;3.67;60.38
30682;BME280;17439;48.092;11.842;2023-04-10T03:51:09;96049.59;;;3.65;60.51
30682;BME280;17439;48.092;11.842;2023-04-10T03:53:36;96043.66;;;3.62;60.56
30682;BME280;17439;48.092;11.842;2023-04-10T03:56:07;96050.09;;;3.61;60.32
30682;BME280;17439;48.092;11.842;2023-04-10T03:58:34;96050.09;;;3.61;60.26
30682;BME280;17439;48.092;11.842;2023-04-10T04:01:01;96038.78;;;3.59;60.30
30682;BME280;17439;48.092;11.842;2023-04-10T04:03:48;96032.06;;;3.57;60.02
30682;BME280;17439;48.092;11.842;2023-04-10T04:06:44;96048.41;;;3.55;60.02
30682;BME280;17439;48.092;11.842;2023-04-10T04:09:31;96046.22;;;3.52;60.14
30682;BME280;17439;48.092;11.842;2023-04-10T04:12:17;96044.59;;;3.51;60.01
30682;BME280;17439;48.092;11.842;2023-04-10T04:14:56;96053.97;;;3.49;60.24
30682;BME280;17439;48.092;11.842;2023-04-10T04:17:36;96053.13;;;3.48;60.06
30682;BME280;17439;48.092;11.842;2023-04-10T04:20:06;96049.91;;;3.46;60.26
30682;BME280;17439;48.092;11.842;2023-04-10T04:22:56;96045.84;;;3.43;60.18
30682;BME280;17439;48.092;11.842;2023-04-10T04:25:52;96046.09;;;3.42;60.18
30682;BME280;17439;48.092;11.842;2023-04-10T04:28:39;96050.66;;;3.41;60.06
30682;BME280;17439;48.092;11.842;2023-04-10T04:31:20;96049.84;;;3.41;60.05
30682;BME280;17439;48.092;11.842;2023-04-10T04:34:12;96049.31;;;3.39;59.90
30682;BME280;17439;48.092;11.842;2023-04-10T04:36:39;96050.34;;;3.38;59.88
30682;BME280;17439;48.092;11.842;2023-04-10T04:39:24;96050.59;;;3.36;59.92
30682;BME280;17439;48.092;11.842;2023-04-10T04:42:11;96046.53;;;3.34;59.80
30682;BME280;17439;48.092;11.842;2023-04-10T04:44:49;96050.31;;;3.33;59.78
30682;BME280;17439;48.092;11.842;2023-04-10T04:47:34;96045.44;;;3.30;59.72
30682;BME280;17439;48.092;11.842;2023-04-10T04:50:20;96044.84;;;3.27;59.92
30682;BME280;17439;48.092;11.842;2023-04-10T04:53:05;96047.00;;;3.25;60.04
30682;BME280;17439;48.092;11.842;2023-04-10T04:55:51;96050.72;;;3.24;60.24
30682;BME280;17439;48.092;11.842;2023-04-10T04:58:41;96046.44;;;3.23;60.28
30682;BME280;17439;48.092;11.842;2023-04-10T05:01:12;96051.78;;;3.23;60.35
30682;BME280;17439;48.092;11.842;2023-04-10T05:03:51;96055.53;;;3.22;60.64
30682;BME280;17439;48.092;11.842;2023-04-10T05:06:34;96050.72;;;3.24;60.48
30682;BME280;17439;48.092;11.842;2023-04-10T05:09:22;96047.47;;;3.22;60.79
30682;BME280;17439;48.092;11.842;2023-04-10T05:12:00;96054.22;;;3.25;60.92
30682;BME280;17439;48.092;11.842;2023-04-10T05:14:45;96053.97;;;3.26;61.04
30682;BME280;17439;48.092;11.842;2023-04-10T05:17:31;96062.56;;;3.29;61.01
30682;BME280;17439;48.092;11.842;2023-04-10T05:20:16;96056.72;;;3.32;60.85
30682;BME280;17439;48.092;11.842;2023-04-10T05:23:08;96057.25;;;3.34;60.96
30682;BME280;17439;48.092;11.842;2023-04-10T05:25:53;96062.13;;;3.37;61.11
30682;BME280;17439;48.092;11.842;2023-04-10T05:28:35;96056.81;;;3.42;61.08
30682;BME280;17439;48.092;11.842;2023-04-10T05:31:22;96066.78;;;3.47;61.12
30682;BME280;17439;48.092;11.842;2023-04-10T05:33:55;96066.28;;;3.50;61.26
30682;BME280;17439;48.092;11.842;2023-04-10T05:36:41;96069.06;;;3.55;61.37
30682;BME280;17439;48.092;11.842;2023-04-10T05:39:19;96067.22;;;3.60;61.46
30682;BME280;17439;48.092;11.842;2023-04-10T05:42:09;96064.59;;;3.66;61.52
30682;BME280;17439;48.092;11.842;2023-04-10T05:44:52;96062.28;;;3.74;61.64
30682;BME280;17439;48.092;11.842;2023-04-10T05:47:41;96058.59;;;3.80;61.85
30682;BME280;17439;48.092;11.842;2023-04-10T05:50:37;96063.25;;;3.90;61.97
30682;BME280;17439;48.092;11.842;2023-04-10T05:53:27;96065.47;;;3.98;63.03
30682;BME280;17439;48.092;11.842;2023-04-10T05:56:22;96072.00;;;4.08;62.10
30682;BME280;17439;48.092;11.842;2023-04-10T05:59:05;96076.13;;;4.15;62.53
30682;BME280;17439;48.092;11.842;2023-04-10T06:01:44;96078.31;;;4.24;62.59
30682;BME280;17439;48.092;11.842;2023-04-10T06:04:11;96073.28;;;4.32;62.48
30682;BME280;17439;48.092;11.842;2023-04-10T06:06:39;96080.91;;;4.41;62.60
30682;BME280;17439;48.092;11.842;2023-04-10T06:09:05;96075.06;;;4.49;62.68
30682;BME280;17439;48.092;11.842;2023-04-10T06:11:33;96079.94;;;4.57;62.66
30682;BME280;17439;48.092;11.842;2023-04-10T06:14:00;96076.78;;;4.65;62.67
30682;BME280;17439;48.092;11.842;2023-04-10T06:16:36;96079.53;;;4.76;62.65
30682;BME280;17439;48.092;11.842;2023-04-10T06:19:03;96079.06;;;4.84;62.64
30682;BME280;17439;48.092;11.842;2023-04-10T06:21:29;96082.06;;;4.93;62.67
30682;BME280;17439;48.092;11.842;2023-04-10T06:23:56;96091.53;;;5.00;62.60
30682;BME280;17439;48.092;11.842;2023-04-10T06:26:23;96089.97;;;5.09;62.64
30682;BME280;17439;48.092;11.842;2023-04-10T06:28:50;96095.38;;;5.20;62.58
30682;BME280;17439;48.092;11.842;2023-04-10T06:31:18;96094.88;;;5.28;62.52
30682;BME280;17439;48.092;11.842;2023-04-10T06:33:45;96090.91;;;5.36;62.50
30682;BME280;17439;48.092;11.842;2023-04-10T06:36:12;96085.00;;;5.44;62.20
30682;BME280;17439;48.092;11.842;2023-04-10T06:38:46;96075.91;;;5.50;62.56
30682;BME280;17439;48.092;11.842;2023-04-10T06:41:13;96076.47;;;5.57;62.37
30682;BME280;17439;48.092;11.842;2023-04-10T06:43:40;96070.31;;;5.67;62.46
30682;BME280;17439;48.092;11.842;2023-04-10T06:46:06;96070.91;;;5.74;62.65
30682;BME280;17439;48.092;11.842;2023-04-10T06:48:33;96070.38;;;5.82;62.49
30682;BME280;17439;48.092;11.842;2023-04-10T06:51:00;96073.09;;;5.93;62.46
30682;BME280;17439;48.092;11.842;2023-04-10T06:53:27;96068.84;;;6.02;62.30
30682;BME280;17439;48.092;11.842;2023-04-10T06:55:53;96074.50;;;6.11;62.26
30682;BME280;17439;48.092;11.842;2023-04-10T06:58:20;96073.19;;;6.24;62.00
30682;BME280;17439;48.092;11.842;2023-04-10T07:00:47;96067.78;;;6.34;61.70
30682;BME280;17439;48.092;11.842;2023-04-10T07:03:13;96060.81;;;6.43;61.67
30682;BME280;17439;48.092;11.842;2023-04-10T07:05:41;96054.88;;;6.51;61.50
30682;BME280;17439;48.092;11.842;2023-04-10T07:08:07;96054.31;;;6.60;61.50
30682;BME280;17439;48.092;11.842;2023-04-10T07:10:34;96056.47;;;6.68;61.31
30682;BME280;17439;48.092;11.842;2023-04-10T07:13:01;96055.94;;;6.76;61.31
30682;BME280;17439;48.092;11.842;2023-04-10T07:15:27;96052.41;;;6.86;61.15
30682;BME280;17439;48.092;11.842;2023-04-10T07:17:54;96049.44;;;6.93;61.15
30682;BME280;17439;48.092;11.842;2023-04-10T07:20:21;96052.09;;;7.03;61.00
30682;BME280;17439;48.092;11.842;2023-04-10T07:22:47;96052.63;;;7.10;60.87
30682;BME280;17439;48.092;11.842;2023-04-10T07:25:14;96053.13;;;7.17;60.59
30682;BME280;17439;48.092;11.842;2023-04-10T07:27:41;96047.47;;;7.24;60.21
30682;BME280;17439;48.092;11.842;2023-04-10T07:30:07;96040.69;;;7.32;60.02
30682;BME280;17439;48.092;11.842;2023-04-10T07:32:36;96039.59;;;7.43;59.65
30682;BME280;17439;48.092;11.842;2023-04-10T07:35:03;96042.50;;;7.52;59.61
30682;BME280;17439;48.092;11.842;2023-04-10T07:37:30;96048.44;;;7.59;59.51
30682;BME280;17439;48.092;11.842;2023-04-10T07:39:56;96046.50;;;7.65;59.67
30682;BME280;17439;48.092;11.842;2023-04-10T07:42:23;96048.09;;;7.71;59.46
30682;BME280;17439;48.092;11.842;2023-04-10T07:44:50;96055.31;;;7.80;59.56
30682;BME280;17439;48.092;11.842;2023-04-10T07:47:16;96052.03;;;7.89;59.42
30682;BME280;17439;48.092;11.842;2023-04-10T07:49:43;96042.25;;;7.98;59.35
30682;BME280;17439;48.092;11.842;2023-04-10T07:52:09;96042.50;;;8.07;59.00
30682;BME280;17439;48.092;11.842;2023-04-10T07:54:36;96047.28;;;8.15;58.76
30682;BME280;17439;48.092;11.842;2023-04-10T07:57:03;96047.78;;;8.22;58.68
30682;BME280;17439;48.092;11.842;2023-04-10T07:59:29;96047.19;;;8.30;58.69
30682;BME280;17439;48.092;11.842;2023-04-10T08:01:56;96050.13;;;8.34;58.30
30682;BME280;17439;48.092;11.842;2023-04-10T08:04:22;96042.78;;;8.40;58.21
30682;BME280;17439;48.092;11.842;2023-04-10T08:06:50;96047.88;;;8.51;58.37
30682;BME280;17439;48.092;11.842;2023-04-10T08:09:16;96041.56;;;8.61;58.06
30682;BME280;17439;48.092;11.842;2023-04-10T08:11:43;96046.88;;;8.71;58.17
30682;BME280;17439;48.092;11.842;2023-04-10T08:14:10;96045.72;;;8.83;57.82
30682;BME280;17439;48.092;11.842;2023-04-10T08:16:37;96044.25;;;8.90;57.60
30682;BME280;17439;48.092;11.842;2023-04-10T08:19:04;96049.31;;;9.02;57.38
30682;BME280;17439;48.092;11.842;2023-04-10T08:21:30;96046.75;;;9.11;57.63
30682;BME280;17439;48.092;11.842;2023-04-10T08:24:01;96050.47;;;9.20;57.33
30682;BME280;17439;48.092;11.842;2023-04-10T08:26:30;96045.84;;;9.21;56.82
30682;BME280;17439;48.092;11.842;2023-04-10T08:28:58;96046.25;;;9.33;56.25
30682;BME280;17439;48.092;11.842;2023-04-10T08:31:26;96046.16;;;9.43;55.70
30682;BME280;17439;48.092;11.842;2023-04-10T08:33:53;96044.94;;;9.55;54.78
30682;BME280;17439;48.092;11.842;2023-04-10T08:36:21;96043.53;;;9.57;54.82
30682;BME280;17439;48.092;11.842;2023-04-10T08:38:47;96048.84;;;9.68;54.57
30682;BME280;17439;48.092;11.842;2023-04-10T08:41:18;96036.47;;;9.61;51.20
30682;BME280;17439;48.092;11.842;2023-04-10T08:43:45;96041.44;;;9.73;53.16
30682;BME280;17439;48.092;11.842;2023-04-10T08:46:13;96038.09;;;9.82;53.26
30682;BME280;17439;48.092;11.842;2023-04-10T08:48:46;96038.09;;;9.82;52.39
30682;BME280;17439;48.092;11.842;2023-04-10T08:51:19;96032.16;;;9.98;53.25
30682;BME280;17439;48.092;11.842;2023-04-10T08:53:53;96038.84;;;10.06;53.27
30682;BME280;17439;48.092;11.842;2023-04-10T08:56:22;96032.09;;;10.23;51.56
30682;BME280;17439;48.092;11.842;2023-04-10T08:58:50;96028.78;;;10.26;51.93
30682;BME280;17439;48.092;11.842;2023-04-10T09:01:18;96024.34;;;10.35;51.79
30682;BME280;17439;48.092;11.842;2023-04-10T09:03:47;96020.66;;;10.45;51.91
30682;BME280;17439;48.092;11.842;2023-04-10T09:06:14;96015.69;;;10.52;52.19
30682;BME280;17439;48.092;11.842;2023-04-10T09:08:40;96018.00;;;10.59;52.31
30682;BME280;17439;48.092;11.842;2023-04-10T09:11:07;96013.22;;;10.69;51.43
30682;BME280;17439;48.092;11.842;2023-04-10T09:16:02;96015.97;;;10.83;51.96
30682;BME280;17439;48.092;11.842;2023-04-10T09:21:14;96022.22;;;10.98;50.50
30682;BME280;17439;48.092;11.842;2023-04-10T09:23:43;96018.81;;;11.06;50.83
30682;BME280;17439;48.092;11.842;2023-04-10T09:26:22;96007.66;;;11.07;48.83
30682;BME280;17439;48.092;11.842;2023-04-10T09:28:56;96004.06;;;11.12;49.28
30682;BME280;17439;48.092;11.842;2023-04-10T09:31:30;96009.75;;;11.24;49.60
30682;BME280;17439;48.092;11.842;2023-04-10T09:34:07;96002.03;;;11.32;50.06
30682;BME280;17439;48.092;11.842;2023-04-10T09:36:34;95994.09;;;11.35;50.41
30682;BME280;17439;48.092;11.842;2023-04-10T09:39:05;95988.47;;;11.46;50.55
30682;BME280;17439;48.092;11.842;2023-04-10T09:41:32;95987.56;;;11.50;50.23
30682;BME280;17439;48.092;11.842;2023-04-10T09:44:09;95985.22;;;11.57;50.24
30682;BME280;17439;48.092;11.842;2023-04-10T09:46:36;95978.56;;;11.64;50.17
30682;BME280;17439;48.092;11.842;2023-04-10T09:49:03;95975.84;;;11.77;49.72
30682;BME280;17439;48.092;11.842;2023-04-10T09:51:31;95971.59;;;11.85;49.31
30682;BME280;17439;48.092;11.842;2023-04-10T09:53:59;95967.94;;;11.90;49.16
30682;BME280;17439;48.092;11.842;2023-04-10T09:56:26;95965.47;;;11.93;49.21
30682;BME280;17439;48.092;11.842;2023-04-10T09:58:55;95958.19;;;11.89;47.15
30682;BME280;17439;48.092;11.842;2023-04-10T10:01:23;95959.34;;;12.10;48.81
30682;BME280;17439;48.092;11.842;2023-04-10T10:03:53;95945.41;;;12.26;48.49
30682;BME280;17439;48.092;11.842;2023-04-10T10:06:21;95946.13;;;12.40;47.43
30682;BME280;17439;48.092;11.842;2023-04-10T10:08:48;95944.59;;;12.25;43.51
30682;BME280;17439;48.092;11.842;2023-04-10T10:11:22;95932.41;;;12.45;46.34
30682;BME280;17439;48.092;11.842;2023-04-10T10:13:50;95937.91;;;12.54;46.12
30682;BME280;17439;48.092;11.842;2023-04-10T10:16:36;95938.00;;;12.72;44.52
30682;BME280;17439;48.092;11.842;2023-04-10T10:19:08;95932.56;;;12.72;44.63
30682;BME280;17439;48.092;11.842;2023-04-10T10:21:37;95946.25;;;12.89;45.19
30682;BME280;17439;48.092;11.842;2023-04-10T10:24:07;95940.81;;;12.89;43.40
30682;BME280;17439;48.092;11.842;2023-04-10T10:26:36;95940.81;;;12.98;45.81
30682;BME280;17439;48.092;11.842;2023-04-10T10:29:06;95929.63;;;12.99;45.17
30682;BME280;17439;48.092;11.842;2023-04-10T10:31:33;95928.72;;;13.13;44.58
30682;BME280;17439;48.092;11.842;2023-04-10T10:34:00;95917.59;;;13.40;40.74
30682;BME280;17439;48.092;11.842;2023-04-10T10:36:27;95913.63;;;13.47;42.27
30682;BME280;17439;48.092;11.842;2023-04-10T10:44:51;95906.25;;;13.56;38.60
30682;BME280;17439;48.092;11.842;2023-04-10T10:47:26;95914.94;;;13.67;40.70
30682;BME280;17439;48.092;11.842;2023-04-10T10:49:55;95896.50;;;13.64;41.08
30682;BME280;17439;48.092;11.842;2023-04-10T10:52:44;95896.50;;;13.72;41.62
30682;BME280;17439;48.092;11.842;2023-04-10T10:55:26;95896.00;;;13.79;42.52
30682;BME280;17439;48.092;11.842;2023-04-10T10:57:55;95887.06;;;13.87;40.85
30682;BME280;17439;48.092;11.842;2023-04-10T11:00:25;95879.81;;;13.91;40.71
30682;BME280;17439;48.092;11.842;2023-04-10T11:06:02;95871.66;;;13.91;40.41
30682;BME280;17439;48.092;11.842;2023-04-10T11:13:34;95864.22;;;14.27;39.32
30682;BME280;17439;48.092;11.842;2023-04-10T11:16:02;95861.16;;;14.28;40.23
30682;BME280;17439;48.092;11.842;2023-04-10T11:29:01;95848.75;;;14.57;39.53
30682;BME280;17439;48.092;11.842;2023-04-10T11:31:29;95850.84;;;14.60;37.78
30682;BME280;17439;48.092;11.842;2023-04-10T11:36:23;95852.75;;;14.68;38.02
30682;BME280;17439;48.092;11.842;2023-04-10T11:38:56;95845.47;;;14.73;37.39
30682;BME280;17439;48.092;11.842;2023-04-10T11:41:33;95839.69;;;14.74;37.13
30682;BME280;17439;48.092;11.842;2023-04-10T11:44:03;95828.44;;;14.84;36.66
30682;BME280;17439;48.092;11.842;2023-04-10T11:46:30;95831.56;;;14.95;36.12
30682;BME280;17439;48.092;11.842;2023-04-10T11:48:59;95817.09;;;15.03;34.99
30682;BME280;17439;48.092;11.842;2023-04-10T11:51:26;95819.75;;;15.12;34.75
30682;BME280;17439;48.092;11.842;2023-04-10T11:54:04;95819.94;;;15.07;35.26
30682;BME280;17439;48.092;11.842;2023-04-10T11:56:31;95814.34;;;15.03;36.13
30682;BME280;17439;48.092;11.842;2023-04-10T11:58:57;95806.97;;;15.04;36.40
30682;BME280;17439;48.092;11.842;2023-04-10T12:01:24;95803.81;;;15.14;35.63
30682;BME280;17439;48.092;11.842;2023-04-10T12:03:51;95808.63;;;15.17;35.76
30682;BME280;17439;48.092;11.842;2023-04-10T12:06:18;95795.78;;;15.18;35.90
30682;BME280;17439;48.092;11.842;2023-04-10T12:08:46;95792.72;;;15.19;35.53
30682;BME280;17439;48.092;11.842;2023-04-10T12:11:12;95784.47;;;15.07;36.16
30682;BME280;17439;48.092;11.842;2023-04-10T12:13:39;95791.31;;;15.13;37.11
30682;BME280;17439;48.092;11.842;2023-04-10T12:16:07;95797.66;;;15.26;35.55
30682;BME280;17439;48.092;11.842;2023-04-10T12:18:34;95786.19;;;15.33;34.21
30682;BME280;17439;48.092;11.842;2023-04-10T12:21:02;95794.66;;;15.40;34.75
30682;BME280;17439;48.092;11.842;2023-04-10T12:23:32;95781.81;;;15.40;35.20
30682;BME280;17439;48.092;11.842;2023-04-10T12:28:36;95776.13;;;15.46;36.25
30682;BME280;17439;48.092;11.842;2023-04-10T12:31:03;95788.78;;;15.50;36.47
30682;BME280;17439;48.092;11.842;2023-04-10T12:33:30;95783.06;;;15.64;35.06
30682;BME280;17439;48.092;11.842;2023-04-10T12:35:57;95786.13;;;15.63;35.26
30682;BME280;17439;48.092;11.842;2023-04-10T12:38:42;95782.84;;;15.69;35.49
30682;BME280;17439;48.092;11.842;2023-04-10T12:41:10;95782.72;;;15.87;33.59
30682;BME280;17439;48.092;11.842;2023-04-10T12:43:37;95788.91;;;15.96;34.16
30682;BME280;17439;48.092;11.842;2023-04-10T12:46:06;95775.94;;;16.05;32.65
30682;BME280;17439;48.092;11.842;2023-04-10T12:48:33;95766.25;;;16.08;34.27
30682;BME280;17439;48.092;11.842;2023-04-10T12:51:00;95768.31;;;16.11;34.57
30682;BME280;17439;48.092;11.842;2023-04-10T12:53:27;95760.09;;;16.11;34.96
30682;BME280;17439;48.092;11.842;2023-04-10T12:56:04;95763.53;;;16.20;33.63
30682;BME280;17439;48.092;11.842;2023-04-10T12:58:31;95765.16;;;16.21;34.26
30682;BME280;17439;48.092;11.842;2023-04-10T13:01:03;95761.06;;;16.27;34.39
30682;BME280;17439;48.092;11.842;2023-04-10T13:03:32;95758.09;;;16.32;32.90
30682;BME280;17439;48.092;11.842;2023-04-10T13:05:59;95754.44;;;16.28;33.79
30682;BME280;17439;48.092;11.842;2023-04-10T13:08:26;95755.81;;;16.35;34.11
30682;BME280;17439;48.092;11.842;2023-04-10T13:10:52;95754.00;;;16.39;33.70
30682;BME280;17439;48.092;11.842;2023-04-10T13:13:19;95744.19;;;16.38;33.54
30682;BME280;17439;48.092;11.842;2023-04-10T13:15:46;95741.69;;;16.45;34.43
30682;BME280;17439;48.092;11.842;2023-04-10T13:18:12;95732.56;;;16.53;33.43
30682;BME280;17439;48.092;11.842;2023-04-10T13:20:39;95735.41;;;16.57;34.08
30682;BME280;17439;48.092;11.842;2023-04-10T13:23:07;95727.78;;;16.62;34.47
30682;BME280;17439;48.092;11.842;2023-04-10T13:25:36;95731.31;;;16.63;34.33
30682;BME280;17439;48.092;11.842;2023-04-10T13:28:04;95721.84;;;16.73;34.61
30682;BME280;17439;48.092;11.842;2023-04-10T13:30:31;95723.19;;;16.79;34.50
30682;BME280;17439;48.092;11.842;2023-04-10T13:32:57;95716.94;;;16.78;33.88
30682;BME280;17439;48.092;11.842;2023-04-10T13:35:24;95716.94;;;16.78;33.32
30682;BME280;17439;48.092;11.842;2023-04-10T13:37:51;95715.44;;;16.81;33.75
30682;BME280;17439;48.092;11.842;2023-04-10T13:40:17;95716.69;;;16.83;33.65
30682;BME280;17439;48.092;11.842;2023-04-10T13:42:44;95706.78;;;16.91;34.20
30682;BME280;17439;48.092;11.842;2023-04-10T13:45:11;95694.91;;;16.99;34.08
30682;BME280;17439;48.092;11.842;2023-04-10T13:47:37;95694.31;;;17.06;34.64
30682;BME280;17439;48.092;11.842;2023-04-10T13:50:05;95700.34;;;17.12;34.05
30682;BME280;17439;48.092;11.842;2023-04-10T13:52:31;95682.16;;;17.19;32.77
30682;BME280;17439;48.092;11.842;2023-04-10T13:54:58;95682.94;;;17.32;31.39
30682;BME280;17439;48.092;11.842;2023-04-10T13:57:26;95677.19;;;17.37;30.34
30682;BME280;17439;48.092;11.842;2023-04-10T13:59:52;95676.28;;;17.33;30.69